Terminal Aerodrome Forecast
Issued by NWS Omaha/Valley, NE

Home | Current Version | Previous Version | Text Only | Print | Product List | Glossary On
Versions: 1 2 3 4 5 6 7 8 9 10 11 12 13
000
FTUS43 KOAX 102320
TAFLNK
TAF
KLNK 102320Z 1100/1124 14011KT P6SM BKN040
     FM110300 14008KT P6SM SCT025 BKN090
     FM110700 16005KT P6SM OVC015
     FM111200 22004KT 5SM BR OVC008
     FM111600 33012KT P6SM BKN020
     FM111900 33015KT P6SM SCT035 BKN090=

USA.gov is the U.S. government's official web portal to all federal, state and local government web resources and services.